createdAt,value
2023-01-28T00:00:28.469Z,4
2023-01-28T00:01:26.994Z,4
2023-01-28T00:02:27.070Z,2
2023-01-28T00:03:34.922Z,5
2023-01-28T00:04:28.142Z,0
2023-01-28T00:05:36.209Z,1
2023-01-28T00:06:38.303Z,3
2023-01-28T00:07:43.154Z,2
2023-01-28T00:08:39.990Z,3
2023-01-28T00:09:27.492Z,6
2023-01-28T00:10:38.822Z,5
2023-01-28T00:11:33.957Z,4
2023-01-28T00:12:26.391Z,4
2023-01-28T00:13:24.524Z,4
2023-01-28T00:14:43.691Z,5
2023-01-28T00:15:25.562Z,5
2023-01-28T00:16:37.997Z,3
2023-01-28T00:17:30.677Z,5
2023-01-28T00:18:41.945Z,6
2023-01-28T00:19:25.472Z,6
2023-01-28T00:20:21.401Z,8
2023-01-28T00:21:45.110Z,3
2023-01-28T00:22:26.436Z,3
2023-01-28T00:23:22.769Z,6
2023-01-28T00:24:33.108Z,8
2023-01-28T00:25:26.619Z,7
2023-01-28T00:26:24.014Z,6
2023-01-28T00:27:24.198Z,5
2023-01-28T00:28:22.375Z,3
2023-01-28T00:29:24.731Z,4
2023-01-28T00:30:21.251Z,5
2023-01-28T00:31:32.515Z,5
2023-01-28T00:32:26.547Z,4
2023-01-28T00:33:32.014Z,3
2023-01-28T00:34:28.261Z,1
2023-01-28T00:35:22.034Z,0
2023-01-28T00:36:19.347Z,0
2023-01-28T00:37:24.527Z,4
2023-01-28T00:38:31.653Z,9
2023-01-28T00:39:27.855Z,8
2023-01-28T00:40:24.437Z,8
2023-01-28T00:41:20.397Z,9
2023-01-28T00:42:27.899Z,7
2023-01-28T00:43:24.531Z,6
2023-01-28T00:44:20.665Z,6
2023-01-28T00:45:34.793Z,6
2023-01-28T00:46:27.534Z,3
2023-01-28T00:47:24.400Z,4
2023-01-28T00:48:22.269Z,5
2023-01-28T00:49:29.552Z,6
2023-01-28T00:50:24.365Z,6
2023-01-28T00:51:21.132Z,4
2023-01-28T00:52:30.279Z,5
2023-01-28T00:53:28.473Z,5
2023-01-28T00:54:23.218Z,5
2023-01-28T00:55:25.459Z,4
2023-01-28T00:56:29.535Z,4
2023-01-28T00:57:26.634Z,5
2023-01-28T00:58:22.383Z,2
2023-01-28T00:59:20.364Z,4
2023-01-28T01:00:28.252Z,4
2023-01-28T01:01:23.434Z,3
2023-01-28T01:02:29.204Z,3
2023-01-28T01:03:29.860Z,6
2023-01-28T01:04:24.415Z,5
2023-01-28T01:05:24.669Z,0
2023-01-28T01:06:23.423Z,4
2023-01-28T01:07:26.909Z,4
2023-01-28T01:08:22.490Z,1
2023-01-28T01:09:33.334Z,3
2023-01-28T01:10:30.234Z,3
2023-01-28T01:11:24.466Z,1
2023-01-28T01:12:20.461Z,2
2023-01-28T01:13:20.275Z,3
2023-01-28T01:14:21.610Z,5
2023-01-28T01:15:22.934Z,3
2023-01-28T01:16:34.787Z,3
2023-01-28T01:17:21.324Z,5
2023-01-28T01:18:26.727Z,4
2023-01-28T01:19:20.375Z,2
2023-01-28T01:20:24.354Z,0
2023-01-28T01:21:25.823Z,1
2023-01-28T01:22:23.445Z,0
2023-01-28T01:23:33.403Z,0
2023-01-28T01:24:26.204Z,1
2023-01-28T01:25:25.465Z,3
2023-01-28T01:26:22.297Z,7
2023-01-28T01:27:37.204Z,4
2023-01-28T01:28:19.415Z,1
2023-01-28T01:29:21.464Z,6
2023-01-28T01:30:35.532Z,7
2023-01-28T01:31:28.587Z,8
2023-01-28T01:32:26.571Z,8
2023-01-28T01:33:20.897Z,7
2023-01-28T01:34:32.512Z,4
2023-01-28T01:35:25.523Z,3
2023-01-28T01:36:25.412Z,4
2023-01-28T01:37:33.785Z,3
2023-01-28T01:38:31.448Z,3
2023-01-28T01:39:24.721Z,3
2023-01-28T01:40:21.007Z,3
2023-01-28T01:41:30.493Z,5
2023-01-28T01:42:30.045Z,7
2023-01-28T01:43:24.388Z,3
2023-01-28T01:44:23.117Z,5
2023-01-28T01:45:33.787Z,1
2023-01-28T01:46:24.694Z,0
2023-01-28T01:47:21.961Z,2
2023-01-28T01:48:31.867Z,5
2023-01-28T01:49:29.808Z,5
2023-01-28T01:50:26.390Z,1
2023-01-28T01:51:27.095Z,0
2023-01-28T01:52:21.408Z,0
2023-01-28T01:53:24.528Z,0
2023-01-28T01:54:20.687Z,2
2023-01-28T01:55:46.080Z,3
2023-01-28T01:56:32.933Z,3
2023-01-28T01:57:20.096Z,2
2023-01-28T01:58:24.835Z,1
2023-01-28T01:59:24.208Z,2
2023-01-28T02:00:26.825Z,4
2023-01-28T02:01:39.500Z,5
2023-01-28T02:02:50.960Z,9
2023-01-28T02:08:24.397Z,1
2023-01-28T02:09:33.908Z,1
2023-01-28T02:11:09.975Z,1
2023-01-28T02:11:25.632Z,3
2023-01-28T02:16:35.072Z,4
2023-01-28T02:17:27.347Z,3
2023-01-28T02:18:23.067Z,1
2023-01-28T02:19:35.428Z,1
2023-01-28T02:20:28.833Z,2
2023-01-28T02:21:21.469Z,2
2023-01-28T02:22:23.263Z,2
2023-01-28T02:23:30.714Z,3
2023-01-28T02:24:26.955Z,1
2023-01-28T02:25:23.729Z,0
2023-01-28T02:26:34.943Z,0
2023-01-28T02:27:28.625Z,1
2023-01-28T02:28:26.509Z,1
2023-01-28T02:29:27.884Z,6
2023-01-28T02:30:20.926Z,2
2023-01-28T02:31:25.271Z,3
2023-01-28T02:32:22.898Z,4
2023-01-28T02:33:22.657Z,3
2023-01-28T02:34:37.667Z,4
2023-01-28T02:35:24.776Z,5
2023-01-28T02:36:22.415Z,6
2023-01-28T02:37:26.329Z,5
2023-01-28T02:38:26.641Z,2
2023-01-28T02:39:24.170Z,2
2023-01-28T02:40:23.566Z,5
2023-01-28T02:41:43.914Z,4
2023-01-28T02:42:21.918Z,4
2023-01-28T02:43:20.844Z,3
2023-01-28T02:44:30.582Z,2
2023-01-28T02:45:23.359Z,5
2023-01-28T02:46:23.372Z,4
2023-01-28T02:47:26.669Z,4
2023-01-28T02:48:27.110Z,3
2023-01-28T02:49:24.633Z,1
2023-01-28T02:50:22.524Z,0
2023-01-28T02:51:24.793Z,0
2023-01-28T02:52:27.175Z,0
2023-01-28T02:53:24.462Z,0
2023-01-28T02:54:31.387Z,0
2023-01-28T02:55:29.139Z,0
2023-01-28T02:56:43.166Z,0
2023-01-28T02:57:22.094Z,0
2023-01-28T02:58:27.294Z,3
2023-01-28T02:59:22.283Z,6
2023-01-28T03:00:23.084Z,6
2023-01-28T03:01:33.657Z,3
2023-01-28T03:02:21.567Z,3
2023-01-28T03:03:26.445Z,6
2023-01-28T03:04:20.571Z,6
2023-01-28T03:05:27.714Z,3
2023-01-28T03:06:27.432Z,1
2023-01-28T03:07:23.676Z,4
2023-01-28T03:08:20.698Z,2
2023-01-28T03:09:22.669Z,0
2023-01-28T03:10:24.939Z,0
2023-01-28T03:11:20.683Z,0
2023-01-28T03:12:32.334Z,0
2023-01-28T03:13:28.497Z,3
2023-01-28T03:14:22.909Z,3
2023-01-28T03:15:25.429Z,0
2023-01-28T03:16:25.758Z,0
2023-01-28T03:17:26.642Z,3
2023-01-28T03:18:22.692Z,6
2023-01-28T03:19:34.157Z,5
2023-01-28T03:20:22.400Z,3
2023-01-28T03:21:25.228Z,4
2023-01-28T03:22:29.579Z,7
2023-01-28T03:23:22.041Z,6
2023-01-28T03:24:25.064Z,4
2023-01-28T03:25:21.011Z,0
2023-01-28T03:26:30.849Z,0
2023-01-28T03:27:24.683Z,0
2023-01-28T03:28:22.910Z,1
2023-01-28T03:29:22.199Z,5
2023-01-28T03:30:30.332Z,2
2023-01-28T03:31:25.265Z,4
2023-01-28T03:32:21.576Z,3
2023-01-28T03:33:27.912Z,1
2023-01-28T03:34:26.815Z,0
2023-01-28T03:35:22.815Z,0
2023-01-28T03:36:26.324Z,0
2023-01-28T03:37:31.351Z,0
2023-01-28T03:38:25.234Z,0
2023-01-28T03:39:20.968Z,2
2023-01-28T03:40:30.653Z,1
2023-01-28T03:41:26.710Z,0
2023-01-28T03:42:23.452Z,0
2023-01-28T03:43:33.016Z,0
2023-01-28T03:44:23.383Z,1
2023-01-28T03:45:24.740Z,3
2023-01-28T03:46:51.117Z,2
2023-01-28T03:47:32.352Z,1
2023-01-28T03:48:33.272Z,1
2023-01-28T03:49:21.201Z,0
2023-01-28T03:50:30.063Z,0
2023-01-28T03:51:29.368Z,0
2023-01-28T03:52:21.980Z,1
2023-01-28T03:53:20.751Z,1
2023-01-28T03:54:46.546Z,0
2023-01-28T03:55:22.101Z,0
2023-01-28T03:56:22.689Z,1
2023-01-28T03:57:33.075Z,1
2023-01-28T03:58:32.941Z,4
2023-01-28T03:59:25.106Z,2
2023-01-28T04:00:30.822Z,1
2023-01-28T04:01:25.253Z,3
2023-01-28T04:02:40.844Z,3
2023-01-28T04:03:22.588Z,2
2023-01-28T04:04:33.136Z,0
2023-01-28T04:05:30.170Z,0
2023-01-28T04:06:28.181Z,0
2023-01-28T04:07:23.213Z,0
2023-01-28T04:09:20.705Z,0
2023-01-28T04:10:23.073Z,0
2023-01-28T04:11:32.955Z,0
2023-01-28T04:12:23.390Z,0
2023-01-28T04:13:26.357Z,0
2023-01-28T04:14:25.261Z,0
2023-01-28T04:16:03.211Z,0
2023-01-28T04:16:23.876Z,0
2023-01-28T04:17:23.028Z,0
2023-01-28T04:18:28.662Z,0
2023-01-28T04:19:28.872Z,0
2023-01-28T04:20:26.513Z,0
2023-01-28T04:21:21.140Z,0
2023-01-28T04:22:22.933Z,2
2023-01-28T04:23:27.851Z,4
2023-01-28T04:24:24.045Z,3
2023-01-28T04:25:22.565Z,2
2023-01-28T04:26:30.786Z,3
2023-01-28T04:27:24.892Z,2
2023-01-28T04:28:24.024Z,0
2023-01-28T04:29:26.777Z,0
2023-01-28T04:30:26.922Z,0
2023-01-28T04:31:27.447Z,2
2023-01-28T04:32:24.732Z,4
2023-01-28T04:33:30.363Z,4
2023-01-28T04:34:24.826Z,3
2023-01-28T04:35:22.644Z,3
2023-01-28T04:36:19.689Z,3
2023-01-28T04:37:23.230Z,0
2023-01-28T04:38:22.818Z,1
2023-01-28T04:39:23.439Z,2
2023-01-28T04:40:23.085Z,2
2023-01-28T04:41:24.969Z,2
2023-01-28T04:42:20.879Z,1
2023-01-28T04:43:23.407Z,0
2023-01-28T04:44:28.560Z,0
2023-01-28T04:45:22.789Z,0
2023-01-28T04:46:26.947Z,0
2023-01-28T04:47:21.256Z,0
2023-01-28T04:48:25.356Z,0
2023-01-28T04:49:22.007Z,0
2023-01-28T04:50:25.851Z,0
2023-01-28T04:51:27.141Z,0
2023-01-28T04:52:25.661Z,0
2023-01-28T04:53:33.659Z,0
2023-01-28T04:54:22.411Z,0
2023-01-28T04:55:25.149Z,0
2023-01-28T04:56:22.948Z,0
2023-01-28T04:57:23.617Z,0
2023-01-28T04:58:27.201Z,0
2023-01-28T04:59:23.948Z,0
2023-01-28T05:00:22.149Z,0
2023-01-28T05:01:24.343Z,0
2023-01-28T05:02:21.568Z,0
2023-01-28T05:03:20.712Z,0
2023-01-28T05:04:31.732Z,0
2023-01-28T05:05:27.052Z,0
2023-01-28T05:06:34.805Z,0
2023-01-28T05:07:32.830Z,0
2023-01-28T05:08:22.438Z,0
2023-01-28T05:09:25.666Z,0
2023-01-28T05:10:21.685Z,0
2023-01-28T05:11:32.409Z,0
2023-01-28T05:12:21.741Z,0
2023-01-28T05:13:24.251Z,0
2023-01-28T05:14:25.577Z,0
2023-01-28T05:15:23.082Z,0
2023-01-28T05:16:25.036Z,0
2023-01-28T05:17:22.797Z,0
2023-01-28T05:18:31.185Z,0
2023-01-28T05:19:28.442Z,0
2023-01-28T05:20:23.075Z,0
2023-01-28T05:21:33.764Z,0
2023-01-28T05:22:28.899Z,0
2023-01-28T05:23:20.463Z,0
2023-01-28T05:24:28.991Z,0
2023-01-28T05:25:22.424Z,0
2023-01-28T05:26:28.110Z,0
2023-01-28T05:27:24.471Z,0
2023-01-28T05:28:34.968Z,0
2023-01-28T05:29:30.398Z,0
2023-01-28T05:30:26.674Z,0
2023-01-28T05:31:21.759Z,0
2023-01-28T05:32:25.985Z,0
2023-01-28T05:33:26.825Z,0
2023-01-28T05:34:22.925Z,0
2023-01-28T05:35:33.296Z,0
2023-01-28T05:36:30.347Z,0
2023-01-28T05:37:27.001Z,0
2023-01-28T05:38:21.133Z,0
2023-01-28T05:39:31.295Z,0
2023-01-28T05:40:22.915Z,0
2023-01-28T05:41:22.898Z,0
2023-01-28T05:42:24.210Z,0
2023-01-28T05:43:30.635Z,0
2023-01-28T05:44:24.917Z,0
2023-01-28T05:45:22.667Z,0
2023-01-28T05:46:33.578Z,0
2023-01-28T05:47:27.249Z,0
2023-01-28T05:48:24.647Z,0
2023-01-28T05:49:33.123Z,0
2023-01-28T05:50:29.722Z,0
2023-01-28T05:51:26.589Z,0
2023-01-28T05:52:20.968Z,0
2023-01-28T05:53:21.719Z,0
2023-01-28T05:54:32.175Z,0
2023-01-28T05:55:23.327Z,0
2023-01-28T05:56:33.084Z,0
2023-01-28T05:57:30.788Z,0
2023-01-28T05:58:36.735Z,0
2023-01-28T05:59:21.891Z,0
2023-01-28T06:00:26.515Z,0
2023-01-28T06:01:27.199Z,0
2023-01-28T06:02:29.799Z,0
2023-01-28T06:03:20.351Z,0
2023-01-28T06:04:29.177Z,0
2023-01-28T06:05:26.868Z,0
2023-01-28T06:06:21.343Z,0
2023-01-28T06:07:30.991Z,0
2023-01-28T06:08:23.594Z,0
2023-01-28T06:09:23.188Z,0
2023-01-28T06:10:20.413Z,0
2023-01-28T06:11:29.105Z,2
2023-01-28T06:12:25.790Z,2
2023-01-28T06:13:22.869Z,1
2023-01-28T06:14:34.944Z,4
2023-01-28T06:15:27.151Z,6
2023-01-28T06:16:23.935Z,4
2023-01-28T06:17:25.014Z,1
2023-01-28T06:18:22.169Z,2
2023-01-28T06:19:25.708Z,3
2023-01-28T06:20:21.746Z,1
2023-01-28T06:21:20.499Z,1
2023-01-28T06:22:31.712Z,1
2023-01-28T06:23:23.116Z,2
2023-01-28T06:24:26.112Z,4
2023-01-28T06:25:30.182Z,1
2023-01-28T06:26:25.733Z,2
2023-01-28T06:27:21.749Z,5
2023-01-28T06:28:23.662Z,3
2023-01-28T06:29:26.981Z,1
2023-01-28T06:30:24.594Z,0
2023-01-28T06:31:20.219Z,2
2023-01-28T06:32:30.460Z,7
2023-01-28T06:33:23.446Z,6
2023-01-28T06:34:21.140Z,0
2023-01-28T06:35:24.228Z,3
2023-01-28T06:36:28.768Z,5
2023-01-28T06:37:25.996Z,5
2023-01-28T06:38:24.392Z,5
2023-01-28T06:39:30.281Z,4
2023-01-28T06:40:28.588Z,2
2023-01-28T06:41:23.103Z,0
2023-01-28T06:42:27.789Z,2
2023-01-28T06:43:27.365Z,1
2023-01-28T06:44:24.748Z,0
2023-01-28T06:45:27.948Z,2
2023-01-28T06:46:22.100Z,4
2023-01-28T06:47:26.010Z,3
2023-01-28T06:48:20.936Z,3
2023-01-28T06:49:31.224Z,2
2023-01-28T06:50:29.583Z,2
2023-01-28T06:51:40.866Z,4
2023-01-28T06:52:33.672Z,3
2023-01-28T06:53:27.447Z,1
2023-01-28T06:54:25.349Z,0
2023-01-28T06:55:20.921Z,2
2023-01-28T06:56:22.435Z,4
2023-01-28T06:57:20.378Z,3
2023-01-28T06:58:25.619Z,2
2023-01-28T06:59:37.792Z,3
2023-01-28T07:00:28.630Z,4
2023-01-28T07:01:23.634Z,4
2023-01-28T07:02:21.450Z,1
2023-01-28T07:03:26.418Z,0
2023-01-28T07:04:19.924Z,0
2023-01-28T07:05:23.345Z,0
2023-01-28T07:06:23.606Z,1
2023-01-28T07:07:35.777Z,0
2023-01-28T07:08:26.193Z,0
2023-01-28T07:09:38.143Z,2
2023-01-28T07:10:32.976Z,6
2023-01-28T07:11:27.131Z,2
2023-01-28T07:12:23.233Z,0
2023-01-28T07:13:34.966Z,0
2023-01-28T07:14:29.237Z,2
2023-01-28T07:15:22.247Z,2
2023-01-28T07:16:23.393Z,0
2023-01-28T07:17:31.123Z,0
2023-01-28T07:18:33.230Z,0
2023-01-28T07:19:23.275Z,0
2023-01-28T07:20:33.444Z,3
2023-01-28T07:21:30.976Z,1
2023-01-28T07:22:25.094Z,0
2023-01-28T07:23:23.294Z,0
2023-01-28T07:24:21.518Z,0
2023-01-28T07:25:27.261Z,1
2023-01-28T07:26:25.273Z,3
2023-01-28T07:27:35.043Z,2
2023-01-28T07:28:28.972Z,2
2023-01-28T07:29:30.506Z,2
2023-01-28T07:30:21.139Z,1
2023-01-28T07:31:24.171Z,0
2023-01-28T07:32:28.478Z,1
2023-01-28T07:33:23.824Z,0
2023-01-28T07:34:23.144Z,0
2023-01-28T07:35:31.329Z,0
2023-01-28T07:36:25.860Z,0
2023-01-28T07:37:22.832Z,0
2023-01-28T07:38:30.395Z,0
2023-01-28T07:39:21.214Z,0
2023-01-28T07:40:25.088Z,0
2023-01-28T07:41:28.245Z,0
2023-01-28T07:42:20.128Z,1
2023-01-28T07:43:27.739Z,2
2023-01-28T07:44:22.020Z,2
2023-01-28T07:45:33.669Z,0
2023-01-28T07:46:25.380Z,0
2023-01-28T07:47:27.758Z,0
2023-01-28T07:48:33.231Z,1
2023-01-28T07:49:24.104Z,3
2023-01-28T07:50:25.540Z,5
2023-01-28T07:51:24.871Z,5
2023-01-28T07:52:31.235Z,4
2023-01-28T07:53:30.637Z,1
2023-01-28T07:54:23.436Z,0
2023-01-28T07:55:35.297Z,0
2023-01-28T07:56:29.430Z,0
2023-01-28T07:57:23.150Z,0
2023-01-28T07:58:21.492Z,0
2023-01-28T07:59:31.297Z,0
2023-01-28T08:00:28.077Z,0
2023-01-28T08:01:27.922Z,0
2023-01-28T08:02:21.043Z,0
2023-01-28T08:03:29.312Z,0
2023-01-28T08:04:27.401Z,0
2023-01-28T08:05:28.897Z,0
2023-01-28T08:06:33.056Z,0
2023-01-28T08:07:27.199Z,0
2023-01-28T08:08:25.179Z,0
2023-01-28T08:09:25.651Z,0
2023-01-28T08:10:29.251Z,2
2023-01-28T08:11:25.475Z,2
2023-01-28T08:12:33.556Z,2
2023-01-28T08:13:31.848Z,3
2023-01-28T08:14:31.659Z,2
2023-01-28T08:15:36.463Z,0
2023-01-28T08:16:26.675Z,4
2023-01-28T08:17:20.737Z,5
2023-01-28T08:18:25.173Z,6
2023-01-28T08:19:21.897Z,6
2023-01-28T08:20:24.160Z,3
2023-01-28T08:21:28.956Z,0
2023-01-28T08:22:23.911Z,0
2023-01-28T08:23:33.529Z,0
2023-01-28T08:24:24.399Z,0
2023-01-28T08:25:26.363Z,0
2023-01-28T08:26:21.361Z,0
2023-01-28T08:27:26.835Z,0
2023-01-28T08:28:51.730Z,0
2023-01-28T08:29:24.951Z,0
2023-01-28T08:30:36.747Z,4
2023-01-28T08:31:20.234Z,1
2023-01-28T08:32:22.970Z,2
2023-01-28T08:33:21.195Z,2
2023-01-28T08:34:28.826Z,5
2023-01-28T08:36:23.146Z,3
2023-01-28T08:37:40.757Z,0
2023-01-28T08:38:23.209Z,0
2023-01-28T08:39:27.544Z,0
2023-01-28T08:40:21.309Z,0
2023-01-28T08:41:33.077Z,0
2023-01-28T08:42:28.001Z,0
2023-01-28T08:43:24.159Z,0
2023-01-28T08:44:39.075Z,0
2023-01-28T08:45:27.798Z,0
2023-01-28T08:46:40.916Z,0
2023-01-28T08:47:23.518Z,0
2023-01-28T08:48:34.136Z,0
2023-01-28T08:49:21.083Z,2
2023-01-28T08:50:23.015Z,1
2023-01-28T08:51:42.353Z,0
2023-01-28T08:52:30.579Z,0
2023-01-28T08:53:24.939Z,0
2023-01-28T08:54:21.564Z,5
2023-01-28T08:55:31.322Z,3
2023-01-28T08:56:25.387Z,2
2023-01-28T08:57:23.475Z,2
2023-01-28T08:58:20.594Z,1
2023-01-28T08:59:32.890Z,1
2023-01-28T09:00:25.550Z,3
2023-01-28T09:01:22.834Z,3
2023-01-28T09:02:31.499Z,1
2023-01-28T09:03:27.046Z,2
2023-01-28T09:05:26.248Z,4
2023-01-28T09:06:31.255Z,4
2023-01-28T09:07:22.714Z,4
2023-01-28T09:08:25.230Z,1
2023-01-28T09:09:27.641Z,3
2023-01-28T09:10:21.728Z,3
2023-01-28T09:12:28.989Z,5
2023-01-28T09:13:21.856Z,5
2023-01-28T09:15:23.085Z,4
2023-01-28T09:16:33.973Z,1
2023-01-28T09:17:24.069Z,4
2023-01-28T09:18:23.349Z,4
2023-01-28T09:19:19.407Z,4
2023-01-28T09:20:27.511Z,4
2023-01-28T09:22:37.100Z,6
2023-01-28T09:23:35.337Z,6
2023-01-28T09:24:28.309Z,4
2023-01-28T09:25:23.218Z,3
2023-01-28T09:27:31.838Z,3
2023-01-28T09:29:22.770Z,3
2023-01-28T09:30:35.397Z,2
2023-01-28T09:31:33.026Z,1
2023-01-28T09:32:23.063Z,5
2023-01-28T09:33:35.862Z,2
2023-01-28T09:34:29.624Z,3
2023-01-28T09:35:27.743Z,3
2023-01-28T09:36:21.227Z,3
2023-01-28T09:37:44.467Z,0
2023-01-28T09:39:29.481Z,0
2023-01-28T09:40:22.169Z,3
2023-01-28T09:41:40.004Z,5
2023-01-28T09:43:25.043Z,4
2023-01-28T09:44:33.395Z,4
2023-01-28T09:45:27.663Z,6
2023-01-28T09:46:34.436Z,6
2023-01-28T09:47:26.687Z,2
2023-01-28T09:48:31.273Z,1
2023-01-28T09:49:23.606Z,1
2023-01-28T09:50:30.064Z,5
2023-01-28T09:51:21.887Z,2
2023-01-28T09:52:28.835Z,3
2023-01-28T09:53:39.414Z,3
2023-01-28T09:55:24.505Z,3
2023-01-28T09:56:44.307Z,2
2023-01-28T09:57:31.352Z,4
2023-01-28T09:58:26.544Z,1
2023-01-28T09:59:19.665Z,0
2023-01-28T10:00:21.523Z,0
2023-01-28T10:01:26.784Z,2
2023-01-28T10:02:30.668Z,4
2023-01-28T10:03:20.223Z,4
2023-01-28T10:04:21.621Z,2
2023-01-28T10:05:21.366Z,1
2023-01-28T10:07:40.150Z,3
2023-01-28T10:09:32.801Z,6
2023-01-28T10:10:25.492Z,6
2023-01-28T10:12:22.940Z,6
2023-01-28T10:13:27.966Z,0
2023-01-28T10:14:22.404Z,0
2023-01-28T10:15:19.837Z,0
2023-01-28T10:16:29.208Z,1
2023-01-28T10:17:24.052Z,2
2023-01-28T10:18:21.458Z,0
2023-01-28T10:19:26.023Z,5
2023-01-28T10:20:34.485Z,3
2023-01-28T10:21:27.134Z,5
2023-01-28T10:22:20.109Z,5
2023-01-28T10:23:23.144Z,4
2023-01-28T10:24:33.428Z,5
2023-01-28T10:25:26.219Z,5
2023-01-28T10:26:32.354Z,4
2023-01-28T10:27:37.990Z,4
2023-01-28T10:28:29.644Z,3
2023-01-28T10:30:23.849Z,3
2023-01-28T10:31:37.567Z,4
2023-01-28T10:34:24.678Z,4
2023-01-28T10:35:35.265Z,0
2023-01-28T10:37:19.802Z,2
2023-01-28T10:38:41.847Z,2
2023-01-28T10:41:23.509Z,2
2023-01-28T10:43:19.254Z,4
2023-01-28T10:44:23.854Z,0
2023-01-28T10:45:20.938Z,0
2023-01-28T10:46:33.922Z,0
2023-01-28T10:49:44.533Z,2
2023-01-28T10:50:35.044Z,1
2023-01-28T10:55:28.032Z,0
2023-01-28T10:57:32.926Z,4
2023-01-28T11:01:38.289Z,5
2023-01-28T11:27:35.340Z,0
2023-01-28T12:03:28.003Z,4
2023-01-28T12:25:34.857Z,3
2023-01-28T12:36:39.776Z,3
2023-01-28T12:55:37.353Z,1
2023-01-28T13:17:26.722Z,3
2023-01-28T13:25:38.458Z,4
2023-01-28T13:27:23.515Z,5
2023-01-28T13:28:23.117Z,0
2023-01-28T13:35:19.761Z,4
2023-01-28T13:41:32.514Z,0
2023-01-28T13:42:24.239Z,2
2023-01-28T13:43:50.780Z,1
2023-01-28T13:44:43.659Z,1
2023-01-28T14:12:25.829Z,0
2023-01-28T14:25:23.282Z,0
2023-01-28T14:32:28.592Z,0
2023-01-28T14:41:24.705Z,2
2023-01-28T14:42:27.907Z,2
2023-01-28T14:43:22.603Z,0
2023-01-28T14:46:34.265Z,3
2023-01-28T14:48:20.109Z,1
2023-01-28T14:50:25.932Z,2
2023-01-28T14:51:54.416Z,3
2023-01-28T14:56:36.681Z,4
2023-01-28T14:59:33.052Z,2
2023-01-28T15:00:28.512Z,2
2023-01-28T15:01:27.889Z,0
2023-01-28T15:02:20.054Z,0
2023-01-28T15:03:25.311Z,0
2023-01-28T15:05:21.392Z,2
2023-01-28T15:08:31.197Z,0
2023-01-28T15:09:21.989Z,3
2023-01-28T15:10:26.507Z,2
2023-01-28T15:11:25.870Z,0
2023-01-28T15:12:24.502Z,1
2023-01-28T15:13:22.607Z,0
2023-01-28T15:14:41.834Z,0
2023-01-28T15:15:25.535Z,2
2023-01-28T15:16:39.832Z,1
2023-01-28T15:22:24.344Z,2
2023-01-28T15:23:23.797Z,3
2023-01-28T15:24:34.337Z,4
2023-01-28T15:27:32.002Z,3
2023-01-28T15:28:23.930Z,3
2023-01-28T15:29:26.433Z,0
2023-01-28T15:30:25.555Z,0
2023-01-28T15:31:40.168Z,0
2023-01-28T15:35:28.723Z,2
2023-01-28T15:39:37.219Z,2
2023-01-28T15:50:28.741Z,2
2023-01-28T15:53:45.947Z,0
2023-01-28T15:58:25.816Z,0
2023-01-28T15:59:24.605Z,2
2023-01-28T16:01:43.174Z,0
2023-01-28T16:08:49.575Z,0
2023-01-28T16:09:36.452Z,0
2023-01-28T16:11:27.165Z,4
2023-01-28T16:12:35.973Z,2
2023-01-28T16:14:20.140Z,0
2023-01-28T16:20:34.954Z,0
2023-01-28T16:24:30.894Z,0
2023-01-28T16:25:24.555Z,0
2023-01-28T16:26:28.716Z,0
2023-01-28T16:39:24.244Z,1
2023-01-28T16:40:38.429Z,0
2023-01-28T16:41:31.403Z,1
2023-01-28T16:44:23.977Z,0
2023-01-28T16:45:29.548Z,0
2023-01-28T16:46:24.645Z,0
2023-01-28T16:47:40.730Z,0
2023-01-28T16:48:33.634Z,1
2023-01-28T16:52:29.279Z,0
2023-01-28T16:53:28.614Z,1
2023-01-28T16:56:45.512Z,2
2023-01-28T16:57:41.160Z,0
2023-01-28T16:59:24.528Z,3
2023-01-28T17:01:35.428Z,0
2023-01-28T17:02:30.901Z,4
2023-01-28T17:05:19.820Z,0
2023-01-28T17:09:44.985Z,1
2023-01-28T17:14:25.237Z,0
2023-01-28T17:16:51.873Z,0
2023-01-28T17:17:45.889Z,0
2023-01-28T17:19:29.680Z,0
2023-01-28T17:20:20.854Z,0
2023-01-28T17:21:24.046Z,0
2023-01-28T17:22:21.709Z,0
2023-01-28T17:23:44.675Z,0
2023-01-28T17:24:28.142Z,0
2023-01-28T17:25:21.877Z,0
2023-01-28T17:26:22.391Z,0
2023-01-28T17:27:26.903Z,0
2023-01-28T17:28:32.746Z,1
2023-01-28T17:29:24.623Z,0
2023-01-28T17:31:44.572Z,0
2023-01-28T17:32:37.550Z,0
2023-01-28T17:33:25.379Z,0
2023-01-28T17:34:29.845Z,0
2023-01-28T17:37:21.756Z,0
2023-01-28T17:42:27.509Z,0
2023-01-28T17:43:21.379Z,0
2023-01-28T17:44:27.408Z,0
2023-01-28T17:47:33.868Z,2
2023-01-28T17:51:25.240Z,3
2023-01-28T17:52:24.079Z,2
2023-01-28T17:55:22.262Z,3
2023-01-28T17:56:37.323Z,5
2023-01-28T17:57:20.409Z,4
2023-01-28T17:58:23.002Z,0
2023-01-28T17:59:26.704Z,2
2023-01-28T18:00:21.029Z,2
2023-01-28T18:03:21.617Z,3
2023-01-28T18:04:20.913Z,1
2023-01-28T18:05:25.719Z,1
2023-01-28T18:06:32.103Z,2
2023-01-28T18:09:26.496Z,1
2023-01-28T18:10:40.763Z,3
2023-01-28T18:11:21.718Z,3
2023-01-28T18:12:31.451Z,1
2023-01-28T18:13:22.853Z,1
2023-01-28T18:14:27.792Z,0
2023-01-28T18:16:29.392Z,2
2023-01-28T18:17:50.303Z,1
2023-01-28T18:20:27.103Z,0
2023-01-28T18:21:20.490Z,0
2023-01-28T18:26:30.609Z,0
2023-01-28T18:27:28.901Z,0
2023-01-28T18:28:26.699Z,0
2023-01-28T18:35:29.851Z,0
2023-01-28T18:36:21.604Z,3
2023-01-28T18:37:29.908Z,5
2023-01-28T18:38:25.730Z,0
2023-01-28T18:39:20.341Z,0
2023-01-28T18:40:48.569Z,0
2023-01-28T18:41:28.263Z,0
2023-01-28T18:42:21.679Z,0
2023-01-28T18:43:27.288Z,0
2023-01-28T18:44:29.803Z,0
2023-01-28T18:48:22.772Z,1
2023-01-28T18:49:23.329Z,1
2023-01-28T18:50:29.830Z,2
2023-01-28T18:52:28.497Z,0
2023-01-28T18:53:19.765Z,0
2023-01-28T18:56:23.023Z,0
2023-01-28T18:57:34.697Z,0
2023-01-28T19:01:32.354Z,0
2023-01-28T19:02:44.508Z,0
2023-01-28T19:04:38.701Z,1
2023-01-28T19:07:20.701Z,0
2023-01-28T19:08:21.738Z,0
2023-01-28T19:09:46.583Z,0
2023-01-28T19:13:30.222Z,0
2023-01-28T19:15:24.639Z,0
2023-01-28T19:28:32.280Z,0
2023-01-28T19:32:28.681Z,0
2023-01-28T19:36:24.989Z,0
2023-01-28T19:37:20.583Z,0
2023-01-28T19:40:40.301Z,0
2023-01-28T19:41:26.564Z,0
2023-01-28T19:42:41.146Z,0
2023-01-28T19:43:28.705Z,0
2023-01-28T19:44:19.425Z,1
2023-01-28T19:46:19.658Z,1
2023-01-28T19:47:21.406Z,0
2023-01-28T19:48:24.255Z,0
2023-01-28T19:49:21.982Z,0
2023-01-28T19:50:24.431Z,0
2023-01-28T19:51:29.405Z,0
2023-01-28T19:53:24.976Z,1
2023-01-28T19:54:24.765Z,0
2023-01-28T19:55:55.623Z,0
2023-01-28T19:56:30.643Z,0
2023-01-28T19:57:35.143Z,2
2023-01-28T19:58:21.476Z,2
2023-01-28T20:00:19.461Z,1
2023-01-28T20:01:21.954Z,0
2023-01-28T20:05:24.461Z,3
2023-01-28T20:06:22.249Z,3
2023-01-28T20:07:23.809Z,2
2023-01-28T20:08:24.865Z,0
2023-01-28T20:09:24.252Z,0
2023-01-28T20:10:20.782Z,0
2023-01-28T20:11:32.716Z,0
2023-01-28T20:12:25.606Z,0
2023-01-28T20:13:23.976Z,0
2023-01-28T20:14:28.149Z,1
2023-01-28T20:16:21.643Z,0
2023-01-28T20:19:30.817Z,0
2023-01-28T20:21:33.966Z,0
2023-01-28T20:22:25.356Z,0
2023-01-28T20:23:25.576Z,0
2023-01-28T20:24:28.621Z,0
2023-01-28T20:25:31.548Z,0
2023-01-28T20:26:31.685Z,0
2023-01-28T20:27:37.380Z,0
2023-01-28T20:28:32.261Z,0
2023-01-28T20:29:20.521Z,0
2023-01-28T20:30:30.413Z,0
2023-01-28T20:32:31.880Z,0
2023-01-28T20:33:56.753Z,0
2023-01-28T20:37:28.238Z,0
2023-01-28T20:39:19.822Z,0
2023-01-28T20:42:46.662Z,0
2023-01-28T20:45:19.452Z,0
2023-01-28T20:47:35.342Z,0
2023-01-28T20:49:51.520Z,0
2023-01-28T20:51:24.977Z,0
2023-01-28T20:52:23.671Z,0
2023-01-28T20:54:20.462Z,0
2023-01-28T20:56:55.854Z,1
2023-01-28T21:03:20.573Z,0
2023-01-28T21:04:39.207Z,0
2023-01-28T21:06:30.140Z,0
2023-01-28T21:09:23.669Z,0
2023-01-28T21:12:40.675Z,0
2023-01-28T21:13:32.569Z,0
2023-01-28T21:14:24.015Z,0
2023-01-28T21:18:28.661Z,0
2023-01-28T21:19:49.505Z,0
2023-01-28T21:21:23.596Z,0
2023-01-28T21:22:34.137Z,0
2023-01-28T21:23:24.949Z,0
2023-01-28T21:24:23.419Z,2
2023-01-28T21:25:43.816Z,0
2023-01-28T21:26:32.785Z,0
2023-01-28T21:27:34.554Z,0
2023-01-28T21:28:26.579Z,0
2023-01-28T21:32:29.307Z,0
2023-01-28T21:33:51.688Z,0
2023-01-28T21:34:22.638Z,0
2023-01-28T21:35:31.754Z,0
2023-01-28T21:37:28.321Z,0
2023-01-28T21:38:25.507Z,0
2023-01-28T21:39:23.673Z,0
2023-01-28T21:40:25.048Z,4
2023-01-28T21:41:45.014Z,3
2023-01-28T21:42:22.033Z,2
2023-01-28T21:43:26.451Z,0
2023-01-28T21:44:37.765Z,0
2023-01-28T21:45:36.664Z,0
2023-01-28T21:46:28.457Z,0
2023-01-28T21:47:20.754Z,0
2023-01-28T21:48:21.462Z,0
2023-01-28T21:49:35.194Z,0
2023-01-28T21:50:21.300Z,0
2023-01-28T21:52:35.923Z,0
2023-01-28T21:53:31.442Z,0
2023-01-28T21:54:20.358Z,0
2023-01-28T21:56:31.489Z,0
2023-01-28T21:57:23.743Z,0
2023-01-28T21:59:24.145Z,0
2023-01-28T22:00:33.151Z,0
2023-01-28T22:01:28.638Z,0
2023-01-28T22:02:24.003Z,3
2023-01-28T22:03:40.681Z,3
2023-01-28T22:06:44.946Z,0
2023-01-28T22:07:28.657Z,0
2023-01-28T22:08:26.132Z,0
2023-01-28T22:09:21.980Z,0
2023-01-28T22:10:43.892Z,0
2023-01-28T22:11:32.482Z,0
2023-01-28T22:12:46.721Z,0
2023-01-28T22:13:46.736Z,0
2023-01-28T22:14:30.969Z,0
2023-01-28T22:15:25.505Z,0